Terminal Aerodrome Forecast
Issued by NWS Wilmington, OH

Current Version | Previous Version | Graphics & Text | Print | Product List | Glossary On
Versions: 1 2 3 4 5 6 7 8 9 10 11 12 13 14 15 16
070
FTUS41 KILN 212338
TAFCMH
TAF
KCMH 212338Z 2200/2224 15004KT P6SM BKN080 OVC120
      TEMPO 2204/2207 -SHRA
     FM221000 10003KT P6SM SCT080 OVC140
     FM221700 08008KT P6SM OVC060
     FM222000 06008KT 6SM -SHRA BR OVC040
     FM222200 06010KT 3SM -SHRA BR OVC012=

USA.gov is the U.S. government's official web portal to all federal, state and local government web resources and services.